sensor_id;sensor_type;location;lat;lon;timestamp;pressure;altitude;pressure_sealevel;temperature;humidity
53932;BME280;39844;52.496;13.482;2022-10-16T00:00:34;100928.53;;;13.74;100.00
53932;BME280;39844;52.496;13.482;2022-10-16T00:03:01;100930.28;;;13.75;100.00
53932;BME280;39844;52.496;13.482;2022-10-16T00:05:26;100927.59;;;13.79;100.00
53932;BME280;39844;52.496;13.482;2022-10-16T00:07:52;100938.94;;;13.84;100.00
53932;BME280;39844;52.496;13.482;2022-10-16T00:10:17;100942.41;;;13.89;100.00
53932;BME280;39844;52.496;13.482;2022-10-16T00:12:42;100939.69;;;13.94;100.00
53932;BME280;39844;52.496;13.482;2022-10-16T00:15:08;100947.50;;;14.02;100.00
53932;BME280;39844;52.496;13.482;2022-10-16T00:17:33;100950.06;;;14.06;100.00
53932;BME280;39844;52.496;13.482;2022-10-16T00:19:59;100942.09;;;14.11;100.00
53932;BME280;39844;52.496;13.482;2022-10-16T00:22:24;100937.59;;;14.17;100.00
53932;BME280;39844;52.496;13.482;2022-10-16T00:24:50;100941.06;;;14.21;100.00
53932;BME280;39844;52.496;13.482;2022-10-16T00:27:15;100933.94;;;14.26;100.00
53932;BME280;39844;52.496;13.482;2022-10-16T00:29:41;100945.34;;;14.31;100.00
53932;BME280;39844;52.496;13.482;2022-10-16T00:32:06;100952.31;;;14.35;100.00
53932;BME280;39844;52.496;13.482;2022-10-16T00:34:32;100953.97;;;14.40;100.00
53932;BME280;39844;52.496;13.482;2022-10-16T00:36:57;100961.78;;;14.48;100.00
53932;BME280;39844;52.496;13.482;2022-10-16T00:39:22;100958.16;;;14.53;100.00
53932;BME280;39844;52.496;13.482;2022-10-16T00:41:48;100965.13;;;14.59;100.00
53932;BME280;39844;52.496;13.482;2022-10-16T00:44:46;100958.84;;;14.66;100.00
53932;BME280;39844;52.496;13.482;2022-10-16T00:47:37;100960.50;;;14.72;100.00
53932;BME280;39844;52.496;13.482;2022-10-16T00:50:16;100950.69;;;14.78;100.00
53932;BME280;39844;52.496;13.482;2022-10-16T00:52:46;100955.00;;;14.82;100.00
53932;BME280;39844;52.496;13.482;2022-10-16T00:55:12;100962.00;;;14.86;100.00
53932;BME280;39844;52.496;13.482;2022-10-16T00:57:38;100956.69;;;14.89;100.00
53932;BME280;39844;52.496;13.482;2022-10-16T01:00:07;100957.53;;;14.90;100.00
53932;BME280;39844;52.496;13.482;2022-10-16T01:02:33;100962.81;;;14.91;100.00
53932;BME280;39844;52.496;13.482;2022-10-16T01:04:58;100970.69;;;14.94;100.00
53932;BME280;39844;52.496;13.482;2022-10-16T01:07:49;100968.88;;;14.96;100.00
53932;BME280;39844;52.496;13.482;2022-10-16T01:10:40;100972.34;;;15.00;100.00
53932;BME280;39844;52.496;13.482;2022-10-16T01:13:12;100973.16;;;15.03;100.00
53932;BME280;39844;52.496;13.482;2022-10-16T01:18:14;100959.88;;;15.06;100.00
53932;BME280;39844;52.496;13.482;2022-10-16T01:20:51;100968.69;;;15.05;100.00
53932;BME280;39844;52.496;13.482;2022-10-16T01:23:27;100972.25;;;15.04;100.00
53932;BME280;39844;52.496;13.482;2022-10-16T01:28:34;100971.34;;;15.05;100.00
53932;BME280;39844;52.496;13.482;2022-10-16T01:31:02;100982.84;;;15.04;100.00
53932;BME280;39844;52.496;13.482;2022-10-16T01:33:46;100988.13;;;15.04;100.00
53932;BME280;39844;52.496;13.482;2022-10-16T01:36:21;100993.41;;;15.03;100.00
53932;BME280;39844;52.496;13.482;2022-10-16T01:38:51;100989.94;;;15.02;100.00
53932;BME280;39844;52.496;13.482;2022-10-16T01:41:23;100988.22;;;15.00;100.00
53932;BME280;39844;52.496;13.482;2022-10-16T01:43:57;100997.03;;;14.99;100.00
53932;BME280;39844;52.496;13.482;2022-10-16T01:46:23;100995.25;;;14.99;100.00
53932;BME280;39844;52.496;13.482;2022-10-16T01:48:50;100993.50;;;14.98;100.00
53932;BME280;39844;52.496;13.482;2022-10-16T01:51:17;100998.84;;;14.95;100.00
53932;BME280;39844;52.496;13.482;2022-10-16T01:53:48;100998.91;;;14.92;100.00
53932;BME280;39844;52.496;13.482;2022-10-16T01:56:15;101004.22;;;14.92;100.00
53932;BME280;39844;52.496;13.482;2022-10-16T01:58:46;101002.44;;;14.91;100.00
53932;BME280;39844;52.496;13.482;2022-10-16T02:01:13;101005.09;;;14.91;100.00
53932;BME280;39844;52.496;13.482;2022-10-16T02:03:42;101007.75;;;14.91;100.00
53932;BME280;39844;52.496;13.482;2022-10-16T02:06:08;101012.16;;;14.91;100.00
53932;BME280;39844;52.496;13.482;2022-10-16T02:08:34;101017.38;;;14.94;100.00
53932;BME280;39844;52.496;13.482;2022-10-16T02:11:00;101010.25;;;14.99;100.00
53932;BME280;39844;52.496;13.482;2022-10-16T02:15:57;101011.09;;;15.02;100.00
53932;BME280;39844;52.496;13.482;2022-10-16T02:18:22;101014.56;;;15.04;100.00
53932;BME280;39844;52.496;13.482;2022-10-16T02:20:53;101017.19;;;15.04;100.00
53932;BME280;39844;52.496;13.482;2022-10-16T02:23:29;101033.03;;;15.07;100.00
53932;BME280;39844;52.496;13.482;2022-10-16T02:25:58;101032.09;;;15.08;100.00
53932;BME280;39844;52.496;13.482;2022-10-16T02:28:34;101034.69;;;15.11;100.00
53932;BME280;39844;52.496;13.482;2022-10-16T02:31:04;101035.59;;;15.12;100.00
53932;BME280;39844;52.496;13.482;2022-10-16T02:33:33;101024.97;;;15.13;100.00
53932;BME280;39844;52.496;13.482;2022-10-16T02:36:00;101021.44;;;15.14;100.00
53932;BME280;39844;52.496;13.482;2022-10-16T02:38:26;101017.88;;;15.15;100.00
53932;BME280;39844;52.496;13.482;2022-10-16T02:40:52;101021.38;;;15.17;100.00
53932;BME280;39844;52.496;13.482;2022-10-16T02:43:18;101028.41;;;15.18;100.00
53932;BME280;39844;52.496;13.482;2022-10-16T02:45:43;101031.88;;;15.20;100.00
53932;BME280;39844;52.496;13.482;2022-10-16T02:48:09;101033.59;;;15.23;100.00
53932;BME280;39844;52.496;13.482;2022-10-16T02:50:34;101031.84;;;15.24;100.00
53932;BME280;39844;52.496;13.482;2022-10-16T02:52:59;101034.47;;;15.24;100.00
53932;BME280;39844;52.496;13.482;2022-10-16T02:55:25;101036.25;;;15.23;100.00
53932;BME280;39844;52.496;13.482;2022-10-16T02:57:50;101037.13;;;15.24;100.00
53932;BME280;39844;52.496;13.482;2022-10-16T03:00:17;101034.47;;;15.25;100.00
53932;BME280;39844;52.496;13.482;2022-10-16T03:02:43;101030.03;;;15.26;100.00
53932;BME280;39844;52.496;13.482;2022-10-16T03:05:09;101029.19;;;15.25;100.00
53932;BME280;39844;52.496;13.482;2022-10-16T03:07:34;101037.13;;;15.24;100.00
53932;BME280;39844;52.496;13.482;2022-10-16T03:10:00;101030.09;;;15.23;100.00
53932;BME280;39844;52.496;13.482;2022-10-16T03:12:28;101042.41;;;15.24;100.00
53932;BME280;39844;52.496;13.482;2022-10-16T03:14:55;101053.03;;;15.22;100.00
53932;BME280;39844;52.496;13.482;2022-10-16T03:17:20;101052.19;;;15.20;100.00
53932;BME280;39844;52.496;13.482;2022-10-16T03:19:45;101052.25;;;15.17;100.00
53932;BME280;39844;52.496;13.482;2022-10-16T03:22:11;101055.81;;;15.14;100.00
53932;BME280;39844;52.496;13.482;2022-10-16T03:24:36;101064.63;;;15.15;100.00
53932;BME280;39844;52.496;13.482;2022-10-16T03:27:01;101062.03;;;15.10;100.00
53932;BME280;39844;52.496;13.482;2022-10-16T03:29:27;101055.06;;;15.06;100.00
53932;BME280;39844;52.496;13.482;2022-10-16T03:31:54;101055.09;;;15.03;100.00
53932;BME280;39844;52.496;13.482;2022-10-16T03:34:19;101052.50;;;15.02;100.00
53932;BME280;39844;52.496;13.482;2022-10-16T03:36:45;101063.09;;;15.00;100.00
53932;BME280;39844;52.496;13.482;2022-10-16T03:39:10;101071.94;;;14.99;100.00
53932;BME280;39844;52.496;13.482;2022-10-16T03:41:35;101081.66;;;14.97;100.00
53932;BME280;39844;52.496;13.482;2022-10-16T03:44:01;101089.59;;;14.96;100.00
53932;BME280;39844;52.496;13.482;2022-10-16T03:46:26;101086.13;;;14.94;100.00
53932;BME280;39844;52.496;13.482;2022-10-16T03:48:51;101080.88;;;14.92;100.00
53932;BME280;39844;52.496;13.482;2022-10-16T03:51:16;101087.94;;;14.90;100.00
53932;BME280;39844;52.496;13.482;2022-10-16T03:53:42;101103.78;;;14.92;100.00
53932;BME280;39844;52.496;13.482;2022-10-16T03:56:07;101100.25;;;14.91;100.00
53932;BME280;39844;52.496;13.482;2022-10-16T03:58:32;101101.09;;;14.93;100.00
53932;BME280;39844;52.496;13.482;2022-10-16T04:00:58;101099.38;;;14.92;100.00
53932;BME280;39844;52.496;13.482;2022-10-16T04:03:23;101106.44;;;14.90;100.00
53932;BME280;39844;52.496;13.482;2022-10-16T04:05:49;101106.44;;;14.90;100.00
53932;BME280;39844;52.496;13.482;2022-10-16T04:08:14;101110.88;;;14.88;100.00
53932;BME280;39844;52.496;13.482;2022-10-16T04:10:42;101117.03;;;14.87;100.00
53932;BME280;39844;52.496;13.482;2022-10-16T04:13:07;101117.97;;;14.85;100.00
53932;BME280;39844;52.496;13.482;2022-10-16T04:15:33;101115.34;;;14.83;100.00
53932;BME280;39844;52.496;13.482;2022-10-16T04:17:58;101122.44;;;14.81;100.00
53932;BME280;39844;52.496;13.482;2022-10-16T04:20:23;101118.91;;;14.81;100.00
53932;BME280;39844;52.496;13.482;2022-10-16T04:22:49;101121.59;;;14.79;100.00
53932;BME280;39844;52.496;13.482;2022-10-16T04:25:14;101125.13;;;14.78;100.00
53932;BME280;39844;52.496;13.482;2022-10-16T04:27:39;101119.88;;;14.77;100.00
53932;BME280;39844;52.496;13.482;2022-10-16T04:30:05;101128.69;;;14.76;100.00
53932;BME280;39844;52.496;13.482;2022-10-16T04:32:30;101121.69;;;14.73;100.00
53932;BME280;39844;52.496;13.482;2022-10-16T04:34:56;101111.13;;;14.72;100.00
53932;BME280;39844;52.496;13.482;2022-10-16T04:37:25;101108.50;;;14.72;100.00
53932;BME280;39844;52.496;13.482;2022-10-16T04:39:51;101112.06;;;14.69;100.00
53932;BME280;39844;52.496;13.482;2022-10-16T04:42:17;101103.25;;;14.67;100.00
53932;BME280;39844;52.496;13.482;2022-10-16T04:44:42;101102.41;;;14.65;100.00
53932;BME280;39844;52.496;13.482;2022-10-16T04:47:07;101093.69;;;14.60;100.00
53932;BME280;39844;52.496;13.482;2022-10-16T04:49:33;101092.88;;;14.55;100.00
53932;BME280;39844;52.496;13.482;2022-10-16T04:51:58;101100.88;;;14.50;100.00
53932;BME280;39844;52.496;13.482;2022-10-16T04:54:23;101102.72;;;14.44;100.00
53932;BME280;39844;52.496;13.482;2022-10-16T04:56:49;101101.03;;;14.38;100.00
53932;BME280;39844;52.496;13.482;2022-10-16T04:59:16;101100.19;;;14.35;100.00
53932;BME280;39844;52.496;13.482;2022-10-16T05:01:42;101108.16;;;14.30;100.00
53932;BME280;39844;52.496;13.482;2022-10-16T05:04:07;101109.06;;;14.26;100.00
53932;BME280;39844;52.496;13.482;2022-10-16T05:06:33;101121.44;;;14.23;100.00
53932;BME280;39844;52.496;13.482;2022-10-16T05:08:58;101126.81;;;14.18;100.00
53932;BME280;39844;52.496;13.482;2022-10-16T05:11:23;101131.25;;;14.13;100.00
53932;BME280;39844;52.496;13.482;2022-10-16T05:13:49;101141.84;;;14.10;100.00
53932;BME280;39844;52.496;13.482;2022-10-16T05:16:14;101148.91;;;14.08;100.00
53932;BME280;39844;52.496;13.482;2022-10-16T05:18:39;101141.84;;;14.09;100.00
53932;BME280;39844;52.496;13.482;2022-10-16T05:21:05;101149.78;;;14.09;100.00
53932;BME280;39844;52.496;13.482;2022-10-16T05:23:31;101143.66;;;14.05;100.00
53932;BME280;39844;52.496;13.482;2022-10-16T05:25:57;101148.09;;;14.03;100.00
53932;BME280;39844;52.496;13.482;2022-10-16T05:28:27;101156.03;;;14.00;100.00
53932;BME280;39844;52.496;13.482;2022-10-16T05:30:53;101153.41;;;13.99;100.00
53932;BME280;39844;52.496;13.482;2022-10-16T05:33:23;101152.56;;;13.98;100.00
53932;BME280;39844;52.496;13.482;2022-10-16T05:35:49;101152.59;;;13.95;100.00
53932;BME280;39844;52.496;13.482;2022-10-16T05:38:16;101147.34;;;13.92;100.00
53932;BME280;39844;52.496;13.482;2022-10-16T05:40:42;101134.09;;;13.93;100.00
53932;BME280;39844;52.496;13.482;2022-10-16T05:43:07;101147.31;;;13.93;100.00
53932;BME280;39844;52.496;13.482;2022-10-16T05:45:32;101155.22;;;13.93;100.00
53932;BME280;39844;52.496;13.482;2022-10-16T05:47:59;101149.09;;;13.93;100.00
53932;BME280;39844;52.496;13.482;2022-10-16T05:50:24;101165.78;;;13.93;100.00
53932;BME280;39844;52.496;13.482;2022-10-16T05:52:50;101176.31;;;13.97;100.00
53932;BME280;39844;52.496;13.482;2022-10-16T05:55:15;101166.59;;;13.99;100.00
53932;BME280;39844;52.496;13.482;2022-10-16T05:57:40;101163.09;;;14.00;100.00
53932;BME280;39844;52.496;13.482;2022-10-16T06:00:06;101168.34;;;14.01;100.00
53932;BME280;39844;52.496;13.482;2022-10-16T06:02:31;101163.09;;;14.00;100.00
53932;BME280;39844;52.496;13.482;2022-10-16T06:04:57;101163.97;;;13.99;100.00
53932;BME280;39844;52.496;13.482;2022-10-16T06:07:23;101173.66;;;13.98;100.00
53932;BME280;39844;52.496;13.482;2022-10-16T06:09:49;101166.66;;;13.96;100.00
53932;BME280;39844;52.496;13.482;2022-10-16T06:12:15;101171.91;;;13.97;100.00
53932;BME280;39844;52.496;13.482;2022-10-16T06:14:40;101179.81;;;13.99;100.00
53932;BME280;39844;52.496;13.482;2022-10-16T06:17:05;101181.56;;;14.00;100.00
53932;BME280;39844;52.496;13.482;2022-10-16T06:19:31;101170.97;;;14.03;100.00
53932;BME280;39844;52.496;13.482;2022-10-16T06:21:56;101177.06;;;14.06;100.00
53932;BME280;39844;52.496;13.482;2022-10-16T06:24:23;101185.84;;;14.10;100.00
53932;BME280;39844;52.496;13.482;2022-10-16T06:26:48;101187.59;;;14.12;100.00
53932;BME280;39844;52.496;13.482;2022-10-16T06:29:13;101185.75;;;14.17;100.00
53932;BME280;39844;52.496;13.482;2022-10-16T06:31:39;101174.25;;;14.21;100.00
53932;BME280;39844;52.496;13.482;2022-10-16T06:34:04;101172.47;;;14.25;100.00
53932;BME280;39844;52.496;13.482;2022-10-16T06:36:34;101182.09;;;14.30;100.00
53932;BME280;39844;52.496;13.482;2022-10-16T06:38:59;101193.53;;;14.34;100.00
53932;BME280;39844;52.496;13.482;2022-10-16T06:41:24;101201.41;;;14.38;100.00
53932;BME280;39844;52.496;13.482;2022-10-16T06:43:50;101213.66;;;14.42;100.00
53932;BME280;39844;52.496;13.482;2022-10-16T06:46:18;101207.47;;;14.45;100.00
53932;BME280;39844;52.496;13.482;2022-10-16T06:48:45;101213.59;;;14.48;100.00
53932;BME280;39844;52.496;13.482;2022-10-16T06:51:11;101212.69;;;14.51;100.00
53932;BME280;39844;52.496;13.482;2022-10-16T06:53:41;101218.81;;;14.54;100.00
53932;BME280;39844;52.496;13.482;2022-10-16T06:58:33;101224.91;;;14.60;100.00
53932;BME280;39844;52.496;13.482;2022-10-16T07:00:58;101224.00;;;14.62;100.00
53932;BME280;39844;52.496;13.482;2022-10-16T07:03:23;101229.25;;;14.67;100.00
53932;BME280;39844;52.496;13.482;2022-10-16T07:05:48;101230.06;;;14.70;100.00
53932;BME280;39844;52.496;13.482;2022-10-16T07:08:14;101226.44;;;14.77;100.00
53932;BME280;39844;52.496;13.482;2022-10-16T07:10:39;101228.13;;;14.84;100.00
53932;BME280;39844;52.496;13.482;2022-10-16T07:13:04;101230.63;;;14.93;100.00
53932;BME280;39844;52.496;13.482;2022-10-16T07:15:30;101243.69;;;15.05;100.00
53932;BME280;39844;52.496;13.482;2022-10-16T07:17:55;101252.31;;;15.19;100.00
53932;BME280;39844;52.496;13.482;2022-10-16T07:20:20;101248.59;;;15.33;100.00
53932;BME280;39844;52.496;13.482;2022-10-16T07:22:46;101253.69;;;15.45;100.00
53932;BME280;39844;52.496;13.482;2022-10-16T07:25:11;101243.84;;;15.56;100.00
53932;BME280;39844;52.496;13.482;2022-10-16T07:27:38;101240.22;;;15.61;100.00
53932;BME280;39844;52.496;13.482;2022-10-16T07:30:04;101252.47;;;15.68;100.00
53932;BME280;39844;52.496;13.482;2022-10-16T07:32:29;101253.22;;;15.75;100.00
53932;BME280;39844;52.496;13.482;2022-10-16T07:34:55;101257.50;;;15.84;100.00
53932;BME280;39844;52.496;13.482;2022-10-16T07:37:21;101251.22;;;15.89;100.00
53932;BME280;39844;52.496;13.482;2022-10-16T07:39:46;101236.09;;;15.96;99.99
53932;BME280;39844;52.496;13.482;2022-10-16T07:42:11;101242.16;;;16.02;99.57
53932;BME280;39844;52.496;13.482;2022-10-16T07:44:37;101255.34;;;16.07;98.67
53932;BME280;39844;52.496;13.482;2022-10-16T07:47:02;101248.19;;;16.12;98.21
53932;BME280;39844;52.496;13.482;2022-10-16T07:49:27;101253.38;;;16.16;97.92
53932;BME280;39844;52.496;13.482;2022-10-16T07:51:53;101259.47;;;16.20;97.07
53932;BME280;39844;52.496;13.482;2022-10-16T07:54:18;101243.53;;;16.23;96.61
53932;BME280;39844;52.496;13.482;2022-10-16T07:56:43;101241.72;;;16.26;96.36
53932;BME280;39844;52.496;13.482;2022-10-16T07:59:09;101259.34;;;16.29;96.17
53932;BME280;39844;52.496;13.482;2022-10-16T08:01:34;101254.00;;;16.30;96.07
53932;BME280;39844;52.496;13.482;2022-10-16T08:03:59;101245.94;;;16.35;95.33
53932;BME280;39844;52.496;13.482;2022-10-16T08:06:24;101257.38;;;16.38;95.22
53932;BME280;39844;52.496;13.482;2022-10-16T08:08:50;101266.09;;;16.43;95.15
53932;BME280;39844;52.496;13.482;2022-10-16T08:11:15;101269.53;;;16.49;94.52
53932;BME280;39844;52.496;13.482;2022-10-16T08:13:41;101273.00;;;16.54;94.31
53932;BME280;39844;52.496;13.482;2022-10-16T08:16:07;101284.41;;;16.59;93.68
53932;BME280;39844;52.496;13.482;2022-10-16T08:18:35;101291.41;;;16.61;93.65
53932;BME280;39844;52.496;13.482;2022-10-16T08:21:00;101288.72;;;16.64;93.37
53932;BME280;39844;52.496;13.482;2022-10-16T08:23:27;101288.63;;;16.69;93.37
53932;BME280;39844;52.496;13.482;2022-10-16T08:25:53;101282.38;;;16.73;93.23
53932;BME280;39844;52.496;13.482;2022-10-16T08:28:19;101273.38;;;16.80;92.60
53932;BME280;39844;52.496;13.482;2022-10-16T08:30:44;101285.63;;;16.85;91.74
53932;BME280;39844;52.496;13.482;2022-10-16T08:33:10;101280.22;;;16.90;91.36
53932;BME280;39844;52.496;13.482;2022-10-16T08:35:36;101284.53;;;16.95;90.85
53932;BME280;39844;52.496;13.482;2022-10-16T08:38:05;101293.28;;;16.99;90.40
53932;BME280;39844;52.496;13.482;2022-10-16T08:40:32;101295.94;;;17.00;89.68
53932;BME280;39844;52.496;13.482;2022-10-16T08:48:25;101295.72;;;17.10;88.94
53932;BME280;39844;52.496;13.482;2022-10-16T08:50:53;101293.00;;;17.11;88.88
53932;BME280;39844;52.496;13.482;2022-10-16T08:53:29;101293.91;;;17.12;88.67
53932;BME280;39844;52.496;13.482;2022-10-16T08:55:56;101303.56;;;17.14;88.17
53932;BME280;39844;52.496;13.482;2022-10-16T08:58:27;101305.31;;;17.15;88.15
53932;BME280;39844;52.496;13.482;2022-10-16T09:00:55;101294.72;;;17.15;87.95
53932;BME280;39844;52.496;13.482;2022-10-16T09:03:28;101299.19;;;17.13;87.72
53932;BME280;39844;52.496;13.482;2022-10-16T09:11:53;101315.84;;;17.20;87.08
53932;BME280;39844;52.496;13.482;2022-10-16T09:17:52;101326.88;;;17.40;85.11
53932;BME280;39844;52.496;13.482;2022-10-16T09:22:45;101330.16;;;17.54;83.71
53932;BME280;39844;52.496;13.482;2022-10-16T09:25:20;101336.19;;;17.60;83.16
53932;BME280;39844;52.496;13.482;2022-10-16T09:27:48;101324.50;;;17.67;82.56
53932;BME280;39844;52.496;13.482;2022-10-16T09:30:19;101326.97;;;17.77;81.52
53932;BME280;39844;52.496;13.482;2022-10-16T09:32:48;101326.03;;;17.78;80.98
53932;BME280;39844;52.496;13.482;2022-10-16T09:35:20;101320.69;;;17.79;80.80
53932;BME280;39844;52.496;13.482;2022-10-16T09:37:49;101312.69;;;17.81;80.21
53932;BME280;39844;52.496;13.482;2022-10-16T09:40:44;101325.06;;;17.82;80.20
53932;BME280;39844;52.496;13.482;2022-10-16T09:43:23;101325.94;;;17.82;79.99
53932;BME280;39844;52.496;13.482;2022-10-16T09:46:07;101333.03;;;17.82;79.78
53932;BME280;39844;52.496;13.482;2022-10-16T09:48:57;101342.66;;;17.86;78.96
53932;BME280;39844;52.496;13.482;2022-10-16T09:51:34;101330.19;;;17.89;78.83
53932;BME280;39844;52.496;13.482;2022-10-16T09:56:36;101339.00;;;17.91;78.05
53932;BME280;39844;52.496;13.482;2022-10-16T09:59:19;101350.56;;;17.89;77.85
53932;BME280;39844;52.496;13.482;2022-10-16T10:01:47;101355.06;;;17.87;77.91
53932;BME280;39844;52.496;13.482;2022-10-16T10:04:14;101361.31;;;17.84;77.71
53932;BME280;39844;52.496;13.482;2022-10-16T10:06:49;101357.78;;;17.84;78.09
53932;BME280;39844;52.496;13.482;2022-10-16T10:09:19;101362.06;;;17.89;78.34
53932;BME280;39844;52.496;13.482;2022-10-16T10:16:49;101369.38;;;18.16;76.42
53932;BME280;39844;52.496;13.482;2022-10-16T10:19:20;101376.13;;;18.28;75.81
53932;BME280;39844;52.496;13.482;2022-10-16T10:21:47;101365.28;;;18.37;75.88
53932;BME280;39844;52.496;13.482;2022-10-16T10:24:13;101371.28;;;18.45;75.07
53932;BME280;39844;52.496;13.482;2022-10-16T10:26:47;101365.88;;;18.50;74.44
53932;BME280;39844;52.496;13.482;2022-10-16T10:29:22;101376.47;;;18.51;74.44
53932;BME280;39844;52.496;13.482;2022-10-16T10:32:08;101375.50;;;18.55;74.00
53932;BME280;39844;52.496;13.482;2022-10-16T10:34:50;101372.75;;;18.58;74.58
53932;BME280;39844;52.496;13.482;2022-10-16T10:37:28;101377.97;;;18.61;73.80
53932;BME280;39844;52.496;13.482;2022-10-16T10:40:15;101379.59;;;18.68;73.40
53932;BME280;39844;52.496;13.482;2022-10-16T10:42:56;101390.22;;;18.68;72.38
53932;BME280;39844;52.496;13.482;2022-10-16T10:45:27;101395.44;;;18.71;72.44
53932;BME280;39844;52.496;13.482;2022-10-16T10:50:57;101393.28;;;18.85;72.04
53932;BME280;39844;52.496;13.482;2022-10-16T11:08:31;101382.81;;;19.10;69.42
53932;BME280;39844;52.496;13.482;2022-10-16T11:10:42;101385.03;;;19.27;68.62
53932;BME280;39844;52.496;13.482;2022-10-16T11:13:34;101394.47;;;19.38;66.94
53932;BME280;39844;52.496;13.482;2022-10-16T11:16:20;101396.91;;;19.46;66.53
53932;BME280;39844;52.496;13.482;2022-10-16T11:18:56;101400.28;;;19.51;65.09
53932;BME280;39844;52.496;13.482;2022-10-16T11:21:24;101393.25;;;19.48;64.03
53932;BME280;39844;52.496;13.482;2022-10-16T11:26:53;101385.28;;;19.48;63.40
53932;BME280;39844;52.496;13.482;2022-10-16T11:29:25;101394.97;;;19.51;64.11
53932;BME280;39844;52.496;13.482;2022-10-16T11:31:58;101396.72;;;19.52;63.87
53932;BME280;39844;52.496;13.482;2022-10-16T11:34:47;101390.78;;;19.42;62.17
53932;BME280;39844;52.496;13.482;2022-10-16T11:37:24;101391.75;;;19.40;62.43
53932;BME280;39844;52.496;13.482;2022-10-16T11:39:52;101390.84;;;19.41;62.43
53932;BME280;39844;52.496;13.482;2022-10-16T11:42:21;101388.09;;;19.44;62.40
53932;BME280;39844;52.496;13.482;2022-10-16T11:50:53;101377.94;;;20.12;60.90
53932;BME280;39844;52.496;13.482;2022-10-16T11:55:53;101388.75;;;20.35;58.22
53932;BME280;39844;52.496;13.482;2022-10-16T11:58:35;101393.66;;;20.21;57.96
53932;BME280;39844;52.496;13.482;2022-10-16T12:06:46;101401.69;;;19.92;57.04
53932;BME280;39844;52.496;13.482;2022-10-16T12:09:04;101403.56;;;19.88;57.12
53932;BME280;39844;52.496;13.482;2022-10-16T12:11:39;101411.69;;;19.85;56.95
53932;BME280;39844;52.496;13.482;2022-10-16T12:14:18;101413.50;;;19.83;57.75
53932;BME280;39844;52.496;13.482;2022-10-16T12:17:03;101418.22;;;19.75;56.84
53932;BME280;39844;52.496;13.482;2022-10-16T12:19:31;101422.03;;;19.94;57.27
53932;BME280;39844;52.496;13.482;2022-10-16T12:22:00;101420.31;;;20.21;54.63
53932;BME280;39844;52.496;13.482;2022-10-16T12:24:31;101418.34;;;20.54;54.38
53932;BME280;39844;52.496;13.482;2022-10-16T12:26:57;101420.13;;;20.79;53.86
53932;BME280;39844;52.496;13.482;2022-10-16T12:29:39;101421.97;;;21.02;52.63
53932;BME280;39844;52.496;13.482;2022-10-16T12:34:50;101421.09;;;21.26;52.57
53932;BME280;39844;52.496;13.482;2022-10-16T12:37:26;101416.38;;;21.34;52.22
53932;BME280;39844;52.496;13.482;2022-10-16T12:39:54;101420.53;;;21.41;52.79
53932;BME280;39844;52.496;13.482;2022-10-16T12:42:23;101422.28;;;21.42;51.76
53932;BME280;39844;52.496;13.482;2022-10-16T12:44:49;101425.41;;;21.54;52.39
53932;BME280;39844;52.496;13.482;2022-10-16T12:47:46;101423.44;;;21.59;51.41
53932;BME280;39844;52.496;13.482;2022-10-16T12:50:32;101433.22;;;21.60;51.33
53932;BME280;39844;52.496;13.482;2022-10-16T12:52:58;101419.06;;;21.56;50.92
53932;BME280;39844;52.496;13.482;2022-10-16T12:55:24;101430.44;;;21.63;50.88
53932;BME280;39844;52.496;13.482;2022-10-16T12:58:13;101433.53;;;21.74;50.40
53932;BME280;39844;52.496;13.482;2022-10-16T13:00:52;101428.34;;;21.71;50.43
53932;BME280;39844;52.496;13.482;2022-10-16T13:06:29;101437.91;;;21.76;49.07
53932;BME280;39844;52.496;13.482;2022-10-16T13:09:25;101444.22;;;21.74;48.75
53932;BME280;39844;52.496;13.482;2022-10-16T13:17:52;101446.88;;;21.75;48.75
53932;BME280;39844;52.496;13.482;2022-10-16T13:28:28;101465.09;;;21.89;48.63
53932;BME280;39844;52.496;13.482;2022-10-16T13:30:56;101467.16;;;21.81;48.31
53932;BME280;39844;52.496;13.482;2022-10-16T13:33:32;101466.94;;;21.87;49.64
53932;BME280;39844;52.496;13.482;2022-10-16T13:35:58;101471.34;;;21.88;49.61
53932;BME280;39844;52.496;13.482;2022-10-16T13:38:29;101473.22;;;21.61;49.47
53932;BME280;39844;52.496;13.482;2022-10-16T13:41:05;101471.28;;;21.41;49.99
53932;BME280;39844;52.496;13.482;2022-10-16T13:43:38;101474.63;;;21.23;50.88
53932;BME280;39844;52.496;13.482;2022-10-16T13:48:39;101479.75;;;21.29;51.13
53932;BME280;39844;52.496;13.482;2022-10-16T13:51:15;101479.59;;;21.34;50.74
53932;BME280;39844;52.496;13.482;2022-10-16T13:53:42;101476.81;;;21.37;50.89
53932;BME280;39844;52.496;13.482;2022-10-16T13:56:13;101471.41;;;21.38;50.62
53932;BME280;39844;52.496;13.482;2022-10-16T13:58:39;101478.50;;;21.39;50.39
53932;BME280;39844;52.496;13.482;2022-10-16T14:01:14;101481.94;;;21.43;50.80
53932;BME280;39844;52.496;13.482;2022-10-16T14:03:41;101484.91;;;21.35;50.89
53932;BME280;39844;52.496;13.482;2022-10-16T14:06:12;101481.66;;;21.26;51.14
53932;BME280;39844;52.496;13.482;2022-10-16T14:08:43;101484.78;;;21.14;51.59
53932;BME280;39844;52.496;13.482;2022-10-16T14:11:09;101495.56;;;21.11;51.56
53932;BME280;39844;52.496;13.482;2022-10-16T14:13:43;101494.91;;;21.03;51.72